sensor_id;sensor_type;location;lat;lon;timestamp;temperature;humidity
9057;DHT22;4563;54.756;9.400;2022-09-30T00:02:25;13.90;75.50
9057;DHT22;4563;54.756;9.400;2022-09-30T00:04:52;13.90;75.50
9057;DHT22;4563;54.756;9.400;2022-09-30T00:07:19;13.90;75.60
9057;DHT22;4563;54.756;9.400;2022-09-30T00:09:47;13.90;75.60
9057;DHT22;4563;54.756;9.400;2022-09-30T00:12:14;13.90;75.60
9057;DHT22;4563;54.756;9.400;2022-09-30T00:14:40;13.90;75.60
9057;DHT22;4563;54.756;9.400;2022-09-30T00:17:07;13.90;75.60
9057;DHT22;4563;54.756;9.400;2022-09-30T00:19:34;13.90;75.60
9057;DHT22;4563;54.756;9.400;2022-09-30T00:22:01;13.90;75.60
9057;DHT22;4563;54.756;9.400;2022-09-30T00:24:28;13.90;75.60
9057;DHT22;4563;54.756;9.400;2022-09-30T00:26:56;13.80;75.50
9057;DHT22;4563;54.756;9.400;2022-09-30T00:29:23;13.80;75.50
9057;DHT22;4563;54.756;9.400;2022-09-30T00:31:49;13.80;75.50
9057;DHT22;4563;54.756;9.400;2022-09-30T00:34:16;13.80;75.50
9057;DHT22;4563;54.756;9.400;2022-09-30T00:36:46;13.80;75.60
9057;DHT22;4563;54.756;9.400;2022-09-30T00:39:15;13.80;75.60
9057;DHT22;4563;54.756;9.400;2022-09-30T00:41:44;13.80;75.60
9057;DHT22;4563;54.756;9.400;2022-09-30T00:44:44;13.80;75.60
9057;DHT22;4563;54.756;9.400;2022-09-30T00:50:24;13.80;75.10
9057;DHT22;4563;54.756;9.400;2022-09-30T00:52:56;13.70;75.50
9057;DHT22;4563;54.756;9.400;2022-09-30T00:55:31;13.70;75.50
9057;DHT22;4563;54.756;9.400;2022-09-30T00:58:00;13.80;75.60
9057;DHT22;4563;54.756;9.400;2022-09-30T01:00:29;13.70;75.60
9057;DHT22;4563;54.756;9.400;2022-09-30T01:02:56;13.70;75.60
9057;DHT22;4563;54.756;9.400;2022-09-30T01:05:24;13.70;75.60
9057;DHT22;4563;54.756;9.400;2022-09-30T01:07:54;13.80;75.80
9057;DHT22;4563;54.756;9.400;2022-09-30T01:10:22;13.70;75.70
9057;DHT22;4563;54.756;9.400;2022-09-30T01:12:49;13.70;75.60
9057;DHT22;4563;54.756;9.400;2022-09-30T01:15:16;13.70;75.60
9057;DHT22;4563;54.756;9.400;2022-09-30T01:17:49;13.70;75.70
9057;DHT22;4563;54.756;9.400;2022-09-30T01:20:40;13.70;75.60
9057;DHT22;4563;54.756;9.400;2022-09-30T01:29:29;13.70;75.30
9057;DHT22;4563;54.756;9.400;2022-09-30T01:32:07;13.70;75.30
9057;DHT22;4563;54.756;9.400;2022-09-30T01:34:42;13.70;75.60
9057;DHT22;4563;54.756;9.400;2022-09-30T01:37:19;13.70;75.70
9057;DHT22;4563;54.756;9.400;2022-09-30T01:39:54;13.70;75.60
9057;DHT22;4563;54.756;9.400;2022-09-30T01:42:29;13.70;75.70
9057;DHT22;4563;54.756;9.400;2022-09-30T01:45:06;13.70;75.70
9057;DHT22;4563;54.756;9.400;2022-09-30T01:47:42;13.70;75.70
9057;DHT22;4563;54.756;9.400;2022-09-30T01:50:16;13.70;75.60
9057;DHT22;4563;54.756;9.400;2022-09-30T01:52:51;13.70;75.70
9057;DHT22;4563;54.756;9.400;2022-09-30T01:55:25;13.60;75.60
9057;DHT22;4563;54.756;9.400;2022-09-30T01:57:56;13.70;75.70
9057;DHT22;4563;54.756;9.400;2022-09-30T02:00:25;13.70;75.70
9057;DHT22;4563;54.756;9.400;2022-09-30T02:02:57;13.60;75.70
9057;DHT22;4563;54.756;9.400;2022-09-30T02:05:28;13.60;75.60
9057;DHT22;4563;54.756;9.400;2022-09-30T02:07:59;13.60;75.60
9057;DHT22;4563;54.756;9.400;2022-09-30T02:10:32;13.70;75.80
9057;DHT22;4563;54.756;9.400;2022-09-30T02:13:04;13.70;75.80
9057;DHT22;4563;54.756;9.400;2022-09-30T02:15:35;13.60;75.70
9057;DHT22;4563;54.756;9.400;2022-09-30T02:18:09;13.70;75.80
9057;DHT22;4563;54.756;9.400;2022-09-30T02:20:40;13.70;75.80
9057;DHT22;4563;54.756;9.400;2022-09-30T02:23:12;13.60;75.80
9057;DHT22;4563;54.756;9.400;2022-09-30T02:25:43;13.60;75.70
9057;DHT22;4563;54.756;9.400;2022-09-30T02:28:16;13.60;75.80
9057;DHT22;4563;54.756;9.400;2022-09-30T02:30:47;13.60;75.80
9057;DHT22;4563;54.756;9.400;2022-09-30T02:33:21;13.60;75.80
9057;DHT22;4563;54.756;9.400;2022-09-30T02:35:53;13.70;75.80
9057;DHT22;4563;54.756;9.400;2022-09-30T02:38:25;13.70;75.90
9057;DHT22;4563;54.756;9.400;2022-09-30T02:40:56;13.60;75.80
9057;DHT22;4563;54.756;9.400;2022-09-30T02:43:24;13.70;75.90
9057;DHT22;4563;54.756;9.400;2022-09-30T02:46:03;13.70;75.90
9057;DHT22;4563;54.756;9.400;2022-09-30T02:48:42;13.70;75.70
9057;DHT22;4563;54.756;9.400;2022-09-30T02:51:14;13.60;75.70
9057;DHT22;4563;54.756;9.400;2022-09-30T02:53:46;13.60;75.80
9057;DHT22;4563;54.756;9.400;2022-09-30T02:56:23;13.60;75.80
9057;DHT22;4563;54.756;9.400;2022-09-30T02:58:54;13.60;75.70
9057;DHT22;4563;54.756;9.400;2022-09-30T03:01:23;13.60;75.80
9057;DHT22;4563;54.756;9.400;2022-09-30T03:03:53;13.60;75.80
9057;DHT22;4563;54.756;9.400;2022-09-30T03:06:22;13.60;75.80
9057;DHT22;4563;54.756;9.400;2022-09-30T03:08:51;13.70;75.90
9057;DHT22;4563;54.756;9.400;2022-09-30T03:11:20;13.60;75.80
9057;DHT22;4563;54.756;9.400;2022-09-30T03:14:12;13.60;75.80
9057;DHT22;4563;54.756;9.400;2022-09-30T03:17:10;13.60;75.70
9057;DHT22;4563;54.756;9.400;2022-09-30T03:19:59;13.60;75.70
9057;DHT22;4563;54.756;9.400;2022-09-30T03:22:41;13.60;75.60
9057;DHT22;4563;54.756;9.400;2022-09-30T03:25:23;13.60;75.70
9057;DHT22;4563;54.756;9.400;2022-09-30T03:28:03;13.60;75.60
9057;DHT22;4563;54.756;9.400;2022-09-30T03:30:42;13.60;75.70
9057;DHT22;4563;54.756;9.400;2022-09-30T03:33:16;13.60;75.80
9057;DHT22;4563;54.756;9.400;2022-09-30T03:35:55;13.60;75.80
9057;DHT22;4563;54.756;9.400;2022-09-30T03:38:34;13.60;76.40
9057;DHT22;4563;54.756;9.400;2022-09-30T03:41:07;13.60;75.70
9057;DHT22;4563;54.756;9.400;2022-09-30T03:43:41;13.60;75.80
9057;DHT22;4563;54.756;9.400;2022-09-30T03:46:15;13.60;76.50
9057;DHT22;4563;54.756;9.400;2022-09-30T03:48:47;13.50;75.60
9057;DHT22;4563;54.756;9.400;2022-09-30T03:51:16;13.60;75.80
9057;DHT22;4563;54.756;9.400;2022-09-30T03:53:43;13.60;75.80
9057;DHT22;4563;54.756;9.400;2022-09-30T03:56:12;13.50;75.60
9057;DHT22;4563;54.756;9.400;2022-09-30T03:58:41;13.50;75.70
9057;DHT22;4563;54.756;9.400;2022-09-30T04:01:15;13.50;75.60
9057;DHT22;4563;54.756;9.400;2022-09-30T04:03:43;13.50;75.60
9057;DHT22;4563;54.756;9.400;2022-09-30T04:06:12;13.50;75.60
9057;DHT22;4563;54.756;9.400;2022-09-30T04:08:41;13.50;75.60
9057;DHT22;4563;54.756;9.400;2022-09-30T04:11:08;13.50;75.60
9057;DHT22;4563;54.756;9.400;2022-09-30T04:13:35;13.50;75.60
9057;DHT22;4563;54.756;9.400;2022-09-30T04:16:03;13.50;75.60
9057;DHT22;4563;54.756;9.400;2022-09-30T04:18:29;13.50;75.60
9057;DHT22;4563;54.756;9.400;2022-09-30T04:20:57;13.50;75.60
9057;DHT22;4563;54.756;9.400;2022-09-30T04:23:24;13.50;76.30
9057;DHT22;4563;54.756;9.400;2022-09-30T04:25:53;13.50;75.60
9057;DHT22;4563;54.756;9.400;2022-09-30T04:28:20;13.50;75.60
9057;DHT22;4563;54.756;9.400;2022-09-30T04:30:46;13.50;75.60
9057;DHT22;4563;54.756;9.400;2022-09-30T04:33:13;13.50;75.60
9057;DHT22;4563;54.756;9.400;2022-09-30T04:35:40;13.50;75.60
9057;DHT22;4563;54.756;9.400;2022-09-30T04:38:07;13.50;75.60
9057;DHT22;4563;54.756;9.400;2022-09-30T04:40:35;13.40;75.50
9057;DHT22;4563;54.756;9.400;2022-09-30T04:43:04;13.40;75.50
9057;DHT22;4563;54.756;9.400;2022-09-30T04:45:31;13.50;75.60
9057;DHT22;4563;54.756;9.400;2022-09-30T04:47:58;13.40;75.50
9057;DHT22;4563;54.756;9.400;2022-09-30T04:50:24;13.50;75.60
9057;DHT22;4563;54.756;9.400;2022-09-30T04:52:51;13.50;75.50
9057;DHT22;4563;54.756;9.400;2022-09-30T04:55:20;13.40;75.50
9057;DHT22;4563;54.756;9.400;2022-09-30T04:57:48;13.40;75.50
9057;DHT22;4563;54.756;9.400;2022-09-30T05:00:17;13.40;75.50
9057;DHT22;4563;54.756;9.400;2022-09-30T05:02:45;13.40;75.50
9057;DHT22;4563;54.756;9.400;2022-09-30T05:05:12;13.40;75.50
9057;DHT22;4563;54.756;9.400;2022-09-30T05:07:39;13.40;75.50
9057;DHT22;4563;54.756;9.400;2022-09-30T05:10:07;13.40;75.50
9057;DHT22;4563;54.756;9.400;2022-09-30T05:12:35;13.40;75.50
9057;DHT22;4563;54.756;9.400;2022-09-30T05:15:02;13.40;75.40
9057;DHT22;4563;54.756;9.400;2022-09-30T05:17:31;13.40;75.50
9057;DHT22;4563;54.756;9.400;2022-09-30T05:19:58;13.40;75.50
9057;DHT22;4563;54.756;9.400;2022-09-30T05:22:25;13.40;75.50
9057;DHT22;4563;54.756;9.400;2022-09-30T05:24:53;13.40;75.50
9057;DHT22;4563;54.756;9.400;2022-09-30T05:27:21;13.40;75.50
9057;DHT22;4563;54.756;9.400;2022-09-30T05:29:48;13.40;75.40
9057;DHT22;4563;54.756;9.400;2022-09-30T05:32:15;13.40;75.40
9057;DHT22;4563;54.756;9.400;2022-09-30T05:34:44;13.40;75.40
9057;DHT22;4563;54.756;9.400;2022-09-30T05:37:11;13.40;75.40
9057;DHT22;4563;54.756;9.400;2022-09-30T05:39:39;13.30;75.30
9057;DHT22;4563;54.756;9.400;2022-09-30T05:42:06;13.40;75.50
9057;DHT22;4563;54.756;9.400;2022-09-30T05:44:33;13.40;75.40
9057;DHT22;4563;54.756;9.400;2022-09-30T05:47:00;13.30;75.30
9057;DHT22;4563;54.756;9.400;2022-09-30T05:49:26;13.30;75.30
9057;DHT22;4563;54.756;9.400;2022-09-30T05:51:55;13.30;75.40
9057;DHT22;4563;54.756;9.400;2022-09-30T05:54:21;13.40;75.50
9057;DHT22;4563;54.756;9.400;2022-09-30T05:56:48;13.40;75.50
9057;DHT22;4563;54.756;9.400;2022-09-30T05:59:16;13.30;75.40
9057;DHT22;4563;54.756;9.400;2022-09-30T06:01:43;13.30;75.40
9057;DHT22;4563;54.756;9.400;2022-09-30T06:04:10;13.30;75.30
9057;DHT22;4563;54.756;9.400;2022-09-30T06:06:37;13.30;75.40
9057;DHT22;4563;54.756;9.400;2022-09-30T06:09:06;13.30;75.40
9057;DHT22;4563;54.756;9.400;2022-09-30T06:11:32;13.30;75.40
9057;DHT22;4563;54.756;9.400;2022-09-30T06:13:59;13.30;75.40
9057;DHT22;4563;54.756;9.400;2022-09-30T06:16:27;13.30;75.40
9057;DHT22;4563;54.756;9.400;2022-09-30T06:18:54;13.30;75.40
9057;DHT22;4563;54.756;9.400;2022-09-30T06:21:21;13.30;75.40
9057;DHT22;4563;54.756;9.400;2022-09-30T06:23:48;13.30;75.40
9057;DHT22;4563;54.756;9.400;2022-09-30T06:26:16;13.30;75.30
9057;DHT22;4563;54.756;9.400;2022-09-30T06:28:43;13.30;75.40
9057;DHT22;4563;54.756;9.400;2022-09-30T06:31:11;13.30;75.40
9057;DHT22;4563;54.756;9.400;2022-09-30T06:33:38;13.30;75.40
9057;DHT22;4563;54.756;9.400;2022-09-30T06:36:06;13.30;75.40
9057;DHT22;4563;54.756;9.400;2022-09-30T06:38:35;13.30;75.40
9057;DHT22;4563;54.756;9.400;2022-09-30T06:41:05;13.30;75.40
9057;DHT22;4563;54.756;9.400;2022-09-30T06:43:33;13.30;75.40
9057;DHT22;4563;54.756;9.400;2022-09-30T06:46:00;13.30;75.40
9057;DHT22;4563;54.756;9.400;2022-09-30T06:48:26;13.30;75.40
9057;DHT22;4563;54.756;9.400;2022-09-30T06:50:56;13.30;75.40
9057;DHT22;4563;54.756;9.400;2022-09-30T06:53:23;13.30;75.40
9057;DHT22;4563;54.756;9.400;2022-09-30T06:55:54;13.40;75.40
9057;DHT22;4563;54.756;9.400;2022-09-30T06:58:21;13.30;75.30
9057;DHT22;4563;54.756;9.400;2022-09-30T07:00:56;13.30;75.40
9057;DHT22;4563;54.756;9.400;2022-09-30T07:03:25;13.30;75.20
9057;DHT22;4563;54.756;9.400;2022-09-30T07:05:55;13.40;75.50
9057;DHT22;4563;54.756;9.400;2022-09-30T07:08:23;13.40;75.50
9057;DHT22;4563;54.756;9.400;2022-09-30T07:10:53;13.40;75.50
9057;DHT22;4563;54.756;9.400;2022-09-30T07:13:21;13.40;75.50
9057;DHT22;4563;54.756;9.400;2022-09-30T07:15:48;13.40;75.40
9057;DHT22;4563;54.756;9.400;2022-09-30T07:18:18;13.40;75.60
9057;DHT22;4563;54.756;9.400;2022-09-30T07:20:47;13.40;75.50
9057;DHT22;4563;54.756;9.400;2022-09-30T07:23:15;13.40;75.50
9057;DHT22;4563;54.756;9.400;2022-09-30T07:25:49;13.40;75.50
9057;DHT22;4563;54.756;9.400;2022-09-30T07:28:16;13.40;75.50
9057;DHT22;4563;54.756;9.400;2022-09-30T07:30:43;13.40;75.50
9057;DHT22;4563;54.756;9.400;2022-09-30T07:33:10;13.40;75.60
9057;DHT22;4563;54.756;9.400;2022-09-30T07:35:49;13.50;75.60
9057;DHT22;4563;54.756;9.400;2022-09-30T07:38:17;13.50;75.60
9057;DHT22;4563;54.756;9.400;2022-09-30T07:40:51;13.50;75.70
9057;DHT22;4563;54.756;9.400;2022-09-30T07:43:18;13.50;75.60
9057;DHT22;4563;54.756;9.400;2022-09-30T07:45:47;13.60;75.80
9057;DHT22;4563;54.756;9.400;2022-09-30T07:48:14;13.50;75.70
9057;DHT22;4563;54.756;9.400;2022-09-30T07:50:56;13.60;75.80
9057;DHT22;4563;54.756;9.400;2022-09-30T07:53:23;13.50;75.70
9057;DHT22;4563;54.756;9.400;2022-09-30T07:55:50;13.60;75.80
9057;DHT22;4563;54.756;9.400;2022-09-30T07:58:17;13.60;75.80
9057;DHT22;4563;54.756;9.400;2022-09-30T08:00:45;13.60;75.80
9057;DHT22;4563;54.756;9.400;2022-09-30T08:03:13;13.60;75.80
9057;DHT22;4563;54.756;9.400;2022-09-30T08:05:40;13.60;75.70
9057;DHT22;4563;54.756;9.400;2022-09-30T08:08:10;13.70;75.90
9057;DHT22;4563;54.756;9.400;2022-09-30T08:10:37;13.70;75.90
9057;DHT22;4563;54.756;9.400;2022-09-30T08:13:04;13.70;75.90
9057;DHT22;4563;54.756;9.400;2022-09-30T08:15:31;13.70;75.80
9057;DHT22;4563;54.756;9.400;2022-09-30T08:17:58;13.80;76.00
9057;DHT22;4563;54.756;9.400;2022-09-30T08:20:25;13.80;75.90
9057;DHT22;4563;54.756;9.400;2022-09-30T08:22:53;13.80;76.00
9057;DHT22;4563;54.756;9.400;2022-09-30T08:25:21;13.80;75.90
9057;DHT22;4563;54.756;9.400;2022-09-30T08:27:48;13.80;75.90
9057;DHT22;4563;54.756;9.400;2022-09-30T08:30:16;13.90;75.90
9057;DHT22;4563;54.756;9.400;2022-09-30T08:32:42;13.90;75.90
9057;DHT22;4563;54.756;9.400;2022-09-30T08:35:09;13.90;75.90
9057;DHT22;4563;54.756;9.400;2022-09-30T08:37:36;13.90;75.80
9057;DHT22;4563;54.756;9.400;2022-09-30T08:40:04;14.00;75.90
9057;DHT22;4563;54.756;9.400;2022-09-30T08:42:54;14.00;75.90
9057;DHT22;4563;54.756;9.400;2022-09-30T08:45:31;14.00;75.50
9057;DHT22;4563;54.756;9.400;2022-09-30T08:48:07;14.00;75.60
9057;DHT22;4563;54.756;9.400;2022-09-30T08:50:47;14.10;75.70
9057;DHT22;4563;54.756;9.400;2022-09-30T08:53:22;14.10;75.60
9057;DHT22;4563;54.756;9.400;2022-09-30T08:55:53;14.10;75.70
9057;DHT22;4563;54.756;9.400;2022-09-30T08:58:26;14.10;75.70
9057;DHT22;4563;54.756;9.400;2022-09-30T09:00:57;14.20;75.70
9057;DHT22;4563;54.756;9.400;2022-09-30T09:03:28;14.20;75.70
9057;DHT22;4563;54.756;9.400;2022-09-30T09:06:07;14.30;75.80
9057;DHT22;4563;54.756;9.400;2022-09-30T09:08:46;14.30;75.70
9057;DHT22;4563;54.756;9.400;2022-09-30T09:11:24;14.40;75.60
9057;DHT22;4563;54.756;9.400;2022-09-30T09:14:02;14.40;75.60
9057;DHT22;4563;54.756;9.400;2022-09-30T09:16:33;14.40;75.40
9057;DHT22;4563;54.756;9.400;2022-09-30T09:19:07;14.50;75.40
9057;DHT22;4563;54.756;9.400;2022-09-30T09:21:45;14.50;75.40
9057;DHT22;4563;54.756;9.400;2022-09-30T09:24:18;14.50;75.40
9057;DHT22;4563;54.756;9.400;2022-09-30T09:26:47;14.60;75.60
9057;DHT22;4563;54.756;9.400;2022-09-30T09:29:26;14.60;75.50
9057;DHT22;4563;54.756;9.400;2022-09-30T09:31:56;14.70;75.20
9057;DHT22;4563;54.756;9.400;2022-09-30T09:34:24;14.70;75.50
9057;DHT22;4563;54.756;9.400;2022-09-30T09:37:01;14.70;75.40
9057;DHT22;4563;54.756;9.400;2022-09-30T09:39:44;14.70;75.30
9057;DHT22;4563;54.756;9.400;2022-09-30T09:42:29;14.80;75.30
9057;DHT22;4563;54.756;9.400;2022-09-30T09:45:01;14.80;75.20
9057;DHT22;4563;54.756;9.400;2022-09-30T09:47:28;14.90;75.40
9057;DHT22;4563;54.756;9.400;2022-09-30T09:49:58;14.90;75.20
9057;DHT22;4563;54.756;9.400;2022-09-30T09:52:37;14.90;75.10
9057;DHT22;4563;54.756;9.400;2022-09-30T09:55:07;15.00;74.80
9057;DHT22;4563;54.756;9.400;2022-09-30T09:57:36;15.00;74.90
9057;DHT22;4563;54.756;9.400;2022-09-30T10:00:08;15.10;74.90
9057;DHT22;4563;54.756;9.400;2022-09-30T10:02:59;15.10;74.70
9057;DHT22;4563;54.756;9.400;2022-09-30T10:05:27;15.10;74.60
9057;DHT22;4563;54.756;9.400;2022-09-30T10:08:11;15.20;74.70
9057;DHT22;4563;54.756;9.400;2022-09-30T10:10:45;15.20;74.40
9057;DHT22;4563;54.756;9.400;2022-09-30T10:13:16;15.20;74.50
9057;DHT22;4563;54.756;9.400;2022-09-30T10:15:45;15.30;74.60
9057;DHT22;4563;54.756;9.400;2022-09-30T10:18:24;15.30;74.50
9057;DHT22;4563;54.756;9.400;2022-09-30T10:20:55;15.30;74.20
9057;DHT22;4563;54.756;9.400;2022-09-30T10:23:26;15.40;74.40
9057;DHT22;4563;54.756;9.400;2022-09-30T10:25:59;15.40;74.30
9057;DHT22;4563;54.756;9.400;2022-09-30T10:28:30;15.40;74.20
9057;DHT22;4563;54.756;9.400;2022-09-30T10:31:04;15.40;74.20
9057;DHT22;4563;54.756;9.400;2022-09-30T10:33:40;15.50;74.10
9057;DHT22;4563;54.756;9.400;2022-09-30T10:36:15;15.50;74.10
9057;DHT22;4563;54.756;9.400;2022-09-30T10:38:56;15.50;74.10
9057;DHT22;4563;54.756;9.400;2022-09-30T10:41:25;15.60;74.10
9057;DHT22;4563;54.756;9.400;2022-09-30T10:43:54;15.60;74.10
9057;DHT22;4563;54.756;9.400;2022-09-30T10:46:25;15.70;74.10
9057;DHT22;4563;54.756;9.400;2022-09-30T10:48:54;15.70;74.10
9057;DHT22;4563;54.756;9.400;2022-09-30T10:51:28;15.70;73.90
9057;DHT22;4563;54.756;9.400;2022-09-30T10:53:55;15.80;73.90
9057;DHT22;4563;54.756;9.400;2022-09-30T10:56:38;15.80;73.90
9057;DHT22;4563;54.756;9.400;2022-09-30T10:59:26;15.90;73.80
9057;DHT22;4563;54.756;9.400;2022-09-30T11:02:13;15.90;73.80
9057;DHT22;4563;54.756;9.400;2022-09-30T11:04:46;15.90;73.60
9057;DHT22;4563;54.756;9.400;2022-09-30T11:07:20;16.00;73.60
9057;DHT22;4563;54.756;9.400;2022-09-30T11:09:54;16.00;73.40
9057;DHT22;4563;54.756;9.400;2022-09-30T11:12:27;16.00;73.30
9057;DHT22;4563;54.756;9.400;2022-09-30T11:15:02;16.00;73.30
9057;DHT22;4563;54.756;9.400;2022-09-30T11:17:39;16.10;73.20
9057;DHT22;4563;54.756;9.400;2022-09-30T11:20:15;16.10;72.90
9057;DHT22;4563;54.756;9.400;2022-09-30T11:22:51;16.10;72.80
9057;DHT22;4563;54.756;9.400;2022-09-30T11:25:25;16.10;73.40
9057;DHT22;4563;54.756;9.400;2022-09-30T11:28:25;16.20;72.70
9057;DHT22;4563;54.756;9.400;2022-09-30T11:31:01;16.20;72.70
9057;DHT22;4563;54.756;9.400;2022-09-30T11:33:41;16.20;72.60
9057;DHT22;4563;54.756;9.400;2022-09-30T11:36:14;16.20;72.40
9057;DHT22;4563;54.756;9.400;2022-09-30T11:38:55;16.30;72.30
9057;DHT22;4563;54.756;9.400;2022-09-30T11:41:27;16.30;72.20
9057;DHT22;4563;54.756;9.400;2022-09-30T11:44:02;16.30;72.30
9057;DHT22;4563;54.756;9.400;2022-09-30T11:46:56;16.30;72.20
9057;DHT22;4563;54.756;9.400;2022-09-30T11:49:43;16.40;72.40
9057;DHT22;4563;54.756;9.400;2022-09-30T11:52:18;16.50;72.40
9057;DHT22;4563;54.756;9.400;2022-09-30T11:55:02;16.50;72.30
9057;DHT22;4563;54.756;9.400;2022-09-30T11:57:37;16.60;72.50
9057;DHT22;4563;54.756;9.400;2022-09-30T12:00:13;16.70;72.50
9057;DHT22;4563;54.756;9.400;2022-09-30T12:02:44;16.70;72.30
9057;DHT22;4563;54.756;9.400;2022-09-30T12:05:19;16.70;72.10
9057;DHT22;4563;54.756;9.400;2022-09-30T12:07:51;16.80;72.20
9057;DHT22;4563;54.756;9.400;2022-09-30T12:10:24;16.80;72.10
9057;DHT22;4563;54.756;9.400;2022-09-30T12:12:55;16.80;72.00
9057;DHT22;4563;54.756;9.400;2022-09-30T12:15:25;16.90;72.00
9057;DHT22;4563;54.756;9.400;2022-09-30T12:17:56;16.90;72.00
9057;DHT22;4563;54.756;9.400;2022-09-30T12:20:31;16.90;71.90
9057;DHT22;4563;54.756;9.400;2022-09-30T12:23:04;16.90;71.80
9057;DHT22;4563;54.756;9.400;2022-09-30T12:25:38;16.90;71.70
9057;DHT22;4563;54.756;9.400;2022-09-30T12:28:09;16.90;71.80
9057;DHT22;4563;54.756;9.400;2022-09-30T12:30:58;16.90;71.60
9057;DHT22;4563;54.756;9.400;2022-09-30T12:33:42;16.90;71.60
9057;DHT22;4563;54.756;9.400;2022-09-30T12:36:27;16.90;71.50
9057;DHT22;4563;54.756;9.400;2022-09-30T12:39:23;16.90;71.50
9057;DHT22;4563;54.756;9.400;2022-09-30T12:42:14;16.90;71.70
9057;DHT22;4563;54.756;9.400;2022-09-30T12:45:03;16.90;71.70
9057;DHT22;4563;54.756;9.400;2022-09-30T12:47:37;16.90;71.70
9057;DHT22;4563;54.756;9.400;2022-09-30T12:50:13;16.90;71.60
9057;DHT22;4563;54.756;9.400;2022-09-30T12:52:43;16.90;71.60
9057;DHT22;4563;54.756;9.400;2022-09-30T12:55:20;16.90;71.70
9057;DHT22;4563;54.756;9.400;2022-09-30T12:57:48;17.00;71.90
9057;DHT22;4563;54.756;9.400;2022-09-30T13:00:18;16.90;71.80
9057;DHT22;4563;54.756;9.400;2022-09-30T13:02:47;17.00;72.10
9057;DHT22;4563;54.756;9.400;2022-09-30T13:05:46;17.00;72.20
9057;DHT22;4563;54.756;9.400;2022-09-30T13:08:47;17.10;73.00
9057;DHT22;4563;54.756;9.400;2022-09-30T13:11:45;17.20;73.50
9057;DHT22;4563;54.756;9.400;2022-09-30T13:14:29;17.20;73.90
9057;DHT22;4563;54.756;9.400;2022-09-30T13:19:46;17.50;73.40
9057;DHT22;4563;54.756;9.400;2022-09-30T13:22:43;17.60;73.10
9057;DHT22;4563;54.756;9.400;2022-09-30T13:25:13;17.80;73.40
9057;DHT22;4563;54.756;9.400;2022-09-30T13:27:42;17.90;72.50
9057;DHT22;4563;54.756;9.400;2022-09-30T13:36:13;18.10;72.30
9057;DHT22;4563;54.756;9.400;2022-09-30T13:38:41;18.20;71.60
9057;DHT22;4563;54.756;9.400;2022-09-30T13:41:18;18.30;71.60
9057;DHT22;4563;54.756;9.400;2022-09-30T13:43:57;18.30;71.40
9057;DHT22;4563;54.756;9.400;2022-09-30T13:46:31;18.30;71.20
9057;DHT22;4563;54.756;9.400;2022-09-30T13:49:03;18.30;70.80
9057;DHT22;4563;54.756;9.400;2022-09-30T13:51:32;18.30;70.70
9057;DHT22;4563;54.756;9.400;2022-09-30T13:54:02;18.30;70.60
9057;DHT22;4563;54.756;9.400;2022-09-30T13:56:35;18.30;70.40
9057;DHT22;4563;54.756;9.400;2022-09-30T13:59:20;18.30;70.30
9057;DHT22;4563;54.756;9.400;2022-09-30T14:02:02;18.30;70.30
9057;DHT22;4563;54.756;9.400;2022-09-30T14:04:48;18.30;70.90
9057;DHT22;4563;54.756;9.400;2022-09-30T14:07:23;18.30;70.30
9057;DHT22;4563;54.756;9.400;2022-09-30T14:10:07;18.30;70.20
9057;DHT22;4563;54.756;9.400;2022-09-30T14:12:47;18.30;70.30
9057;DHT22;4563;54.756;9.400;2022-09-30T14:15:43;18.20;70.00
9057;DHT22;4563;54.756;9.400;2022-09-30T14:18:30;18.20;70.40
9057;DHT22;4563;54.756;9.400;2022-09-30T14:21:17;18.30;70.00
9057;DHT22;4563;54.756;9.400;2022-09-30T14:23:45;18.30;69.90
9057;DHT22;4563;54.756;9.400;2022-09-30T14:26:36;18.30;69.20
9057;DHT22;4563;54.756;9.400;2022-09-30T14:29:13;18.20;69.30
9057;DHT22;4563;54.756;9.400;2022-09-30T14:31:43;18.30;69.00
9057;DHT22;4563;54.756;9.400;2022-09-30T14:34:11;18.30;68.80
9057;DHT22;4563;54.756;9.400;2022-09-30T14:36:40;18.30;68.60
9057;DHT22;4563;54.756;9.400;2022-09-30T14:39:14;18.30;68.60
9057;DHT22;4563;54.756;9.400;2022-09-30T14:41:48;18.30;68.60
9057;DHT22;4563;54.756;9.400;2022-09-30T14:44:17;18.30;68.70
9057;DHT22;4563;54.756;9.400;2022-09-30T14:46:47;18.20;68.30
9057;DHT22;4563;54.756;9.400;2022-09-30T14:49:17;18.30;68.30
9057;DHT22;4563;54.756;9.400;2022-09-30T14:51:47;18.20;68.10
9057;DHT22;4563;54.756;9.400;2022-09-30T14:54:17;18.20;68.40
9057;DHT22;4563;54.756;9.400;2022-09-30T14:56:45;18.20;68.00
9057;DHT22;4563;54.756;9.400;2022-09-30T14:59:17;18.20;67.90
9057;DHT22;4563;54.756;9.400;2022-09-30T15:01:46;18.20;67.80
9057;DHT22;4563;54.756;9.400;2022-09-30T15:04:16;18.10;67.70
9057;DHT22;4563;54.756;9.400;2022-09-30T15:06:46;18.10;67.70
9057;DHT22;4563;54.756;9.400;2022-09-30T15:09:16;18.00;67.70
9057;DHT22;4563;54.756;9.400;2022-09-30T15:11:44;18.00;67.80
9057;DHT22;4563;54.756;9.400;2022-09-30T15:14:17;18.00;67.60
9057;DHT22;4563;54.756;9.400;2022-09-30T15:16:46;18.00;67.50
9057;DHT22;4563;54.756;9.400;2022-09-30T15:19:17;18.00;67.40
9057;DHT22;4563;54.756;9.400;2022-09-30T15:21:46;17.90;67.30
9057;DHT22;4563;54.756;9.400;2022-09-30T15:24:14;17.80;67.30
9057;DHT22;4563;54.756;9.400;2022-09-30T15:26:43;17.80;67.30
9057;DHT22;4563;54.756;9.400;2022-09-30T15:29:12;17.80;67.50
9057;DHT22;4563;54.756;9.400;2022-09-30T15:31:44;17.80;67.50
9057;DHT22;4563;54.756;9.400;2022-09-30T15:34:14;17.80;67.60
9057;DHT22;4563;54.756;9.400;2022-09-30T15:36:44;17.70;67.50
9057;DHT22;4563;54.756;9.400;2022-09-30T15:39:18;17.70;67.50
9057;DHT22;4563;54.756;9.400;2022-09-30T15:41:47;17.60;67.60
9057;DHT22;4563;54.756;9.400;2022-09-30T15:44:18;17.60;67.60
9057;DHT22;4563;54.756;9.400;2022-09-30T15:47:07;17.60;67.60
9057;DHT22;4563;54.756;9.400;2022-09-30T15:49:45;17.60;68.30
9057;DHT22;4563;54.756;9.400;2022-09-30T15:52:26;17.50;68.10
9057;DHT22;4563;54.756;9.400;2022-09-30T15:54:54;17.50;68.10
9057;DHT22;4563;54.756;9.400;2022-09-30T15:57:41;17.40;67.80
9057;DHT22;4563;54.756;9.400;2022-09-30T16:00:36;17.40;68.50
9057;DHT22;4563;54.756;9.400;2022-09-30T16:03:35;17.40;68.90
9057;DHT22;4563;54.756;9.400;2022-09-30T16:06:09;17.40;69.40
9057;DHT22;4563;54.756;9.400;2022-09-30T16:08:41;17.30;68.30
9057;DHT22;4563;54.756;9.400;2022-09-30T16:11:09;17.30;67.90
9057;DHT22;4563;54.756;9.400;2022-09-30T16:13:44;17.20;67.80
9057;DHT22;4563;54.756;9.400;2022-09-30T16:16:18;17.20;68.10
9057;DHT22;4563;54.756;9.400;2022-09-30T16:18:47;17.10;68.10
9057;DHT22;4563;54.756;9.400;2022-09-30T16:21:28;17.10;67.80
9057;DHT22;4563;54.756;9.400;2022-09-30T16:23:55;17.10;68.50
9057;DHT22;4563;54.756;9.400;2022-09-30T16:26:27;17.10;68.00
9057;DHT22;4563;54.756;9.400;2022-09-30T16:28:55;17.10;68.20
9057;DHT22;4563;54.756;9.400;2022-09-30T16:31:27;17.00;68.00
9057;DHT22;4563;54.756;9.400;2022-09-30T16:33:58;17.00;68.00
9057;DHT22;4563;54.756;9.400;2022-09-30T16:36:25;17.00;68.10
9057;DHT22;4563;54.756;9.400;2022-09-30T16:38:52;16.90;68.00
9057;DHT22;4563;54.756;9.400;2022-09-30T16:41:19;16.90;68.00
9057;DHT22;4563;54.756;9.400;2022-09-30T16:43:46;16.90;68.80
9057;DHT22;4563;54.756;9.400;2022-09-30T16:46:13;16.80;68.00
9057;DHT22;4563;54.756;9.400;2022-09-30T16:48:40;16.80;68.10
9057;DHT22;4563;54.756;9.400;2022-09-30T16:51:12;16.80;68.10
9057;DHT22;4563;54.756;9.400;2022-09-30T16:53:40;16.80;68.30
9057;DHT22;4563;54.756;9.400;2022-09-30T16:56:13;16.70;68.20